sensor_id;sensor_type;location;lat;lon;timestamp;P1;durP1;ratioP1;P2;durP2;ratioP2
20855;SDS011;63058;49.424;8.420;2022-12-24T00:01:45;5.07;;;1.20;;
20855;SDS011;63058;49.424;8.420;2022-12-24T00:04:12;7.28;;;1.60;;
20855;SDS011;63058;49.424;8.420;2022-12-24T00:06:38;9.38;;;1.95;;
20855;SDS011;63058;49.424;8.420;2022-12-24T00:09:03;7.38;;;1.45;;
20855;SDS011;63058;49.424;8.420;2022-12-24T00:14:25;6.75;;;1.98;;
20855;SDS011;63058;49.424;8.420;2022-12-24T00:16:54;7.60;;;1.50;;
20855;SDS011;63058;49.424;8.420;2022-12-24T00:19:26;7.18;;;2.00;;
20855;SDS011;63058;49.424;8.420;2022-12-24T00:21:56;8.40;;;1.88;;
20855;SDS011;63058;49.424;8.420;2022-12-24T00:24:25;7.40;;;2.08;;
20855;SDS011;63058;49.424;8.420;2022-12-24T00:26:53;7.75;;;1.90;;
20855;SDS011;63058;49.424;8.420;2022-12-24T00:29:20;9.70;;;2.22;;
20855;SDS011;63058;49.424;8.420;2022-12-24T00:31:49;18.10;;;2.17;;
20855;SDS011;63058;49.424;8.420;2022-12-24T00:34:15;10.02;;;2.13;;
20855;SDS011;63058;49.424;8.420;2022-12-24T00:36:41;10.98;;;2.28;;
20855;SDS011;63058;49.424;8.420;2022-12-24T00:39:27;13.05;;;2.13;;
20855;SDS011;63058;49.424;8.420;2022-12-24T00:41:56;10.55;;;2.20;;
20855;SDS011;63058;49.424;8.420;2022-12-24T00:44:28;8.98;;;1.80;;
20855;SDS011;63058;49.424;8.420;2022-12-24T00:47:06;10.48;;;2.20;;
20855;SDS011;63058;49.424;8.420;2022-12-24T00:49:41;8.90;;;1.63;;
20855;SDS011;63058;49.424;8.420;2022-12-24T00:52:21;11.43;;;1.95;;
20855;SDS011;63058;49.424;8.420;2022-12-24T00:54:47;10.63;;;2.22;;
20855;SDS011;63058;49.424;8.420;2022-12-24T00:57:12;8.73;;;2.03;;
20855;SDS011;63058;49.424;8.420;2022-12-24T00:59:43;12.95;;;2.33;;
20855;SDS011;63058;49.424;8.420;2022-12-24T01:02:13;7.75;;;1.67;;
20855;SDS011;63058;49.424;8.420;2022-12-24T01:04:39;8.40;;;1.85;;
20855;SDS011;63058;49.424;8.420;2022-12-24T01:07:23;9.98;;;2.00;;
20855;SDS011;63058;49.424;8.420;2022-12-24T01:09:49;10.75;;;1.85;;
20855;SDS011;63058;49.424;8.420;2022-12-24T01:12:17;8.07;;;1.70;;
20855;SDS011;63058;49.424;8.420;2022-12-24T01:14:43;7.13;;;1.55;;
20855;SDS011;63058;49.424;8.420;2022-12-24T01:17:13;8.10;;;1.77;;
20855;SDS011;63058;49.424;8.420;2022-12-24T01:19:39;10.38;;;2.10;;
20855;SDS011;63058;49.424;8.420;2022-12-24T01:22:06;6.20;;;1.45;;
20855;SDS011;63058;49.424;8.420;2022-12-24T01:24:33;9.57;;;2.30;;
20855;SDS011;63058;49.424;8.420;2022-12-24T01:27:02;10.85;;;2.28;;
20855;SDS011;63058;49.424;8.420;2022-12-24T01:29:51;9.85;;;2.20;;
20855;SDS011;63058;49.424;8.420;2022-12-24T01:32:16;10.05;;;1.80;;
20855;SDS011;63058;49.424;8.420;2022-12-24T01:34:50;7.13;;;1.40;;
20855;SDS011;63058;49.424;8.420;2022-12-24T01:37:19;6.88;;;1.67;;
20855;SDS011;63058;49.424;8.420;2022-12-24T01:39:48;5.78;;;1.40;;
20855;SDS011;63058;49.424;8.420;2022-12-24T01:42:18;7.07;;;1.60;;
20855;SDS011;63058;49.424;8.420;2022-12-24T01:48:12;9.77;;;1.92;;
20855;SDS011;63058;49.424;8.420;2022-12-24T01:54:00;10.05;;;1.85;;
20855;SDS011;63058;49.424;8.420;2022-12-24T01:56:32;8.48;;;1.70;;
20855;SDS011;63058;49.424;8.420;2022-12-24T01:59:02;7.63;;;1.55;;
20855;SDS011;63058;49.424;8.420;2022-12-24T02:01:33;7.97;;;1.75;;
20855;SDS011;63058;49.424;8.420;2022-12-24T02:04:53;7.80;;;1.98;;
20855;SDS011;63058;49.424;8.420;2022-12-24T02:07:13;7.38;;;1.50;;
20855;SDS011;63058;49.424;8.420;2022-12-24T02:09:42;5.40;;;1.25;;
20855;SDS011;63058;49.424;8.420;2022-12-24T02:12:12;5.72;;;1.83;;
20855;SDS011;63058;49.424;8.420;2022-12-24T02:14:40;7.72;;;1.40;;
20855;SDS011;63058;49.424;8.420;2022-12-24T02:29:18;7.22;;;1.77;;
20855;SDS011;63058;49.424;8.420;2022-12-24T02:32:23;6.20;;;1.30;;
20855;SDS011;63058;49.424;8.420;2022-12-24T02:37:42;8.38;;;1.70;;
20855;SDS011;63058;49.424;8.420;2022-12-24T02:40:47;10.50;;;1.70;;
20855;SDS011;63058;49.424;8.420;2022-12-24T02:43:35;4.90;;;1.58;;
20855;SDS011;63058;49.424;8.420;2022-12-24T02:46:20;9.38;;;2.15;;
20855;SDS011;63058;49.424;8.420;2022-12-24T02:48:58;14.52;;;2.28;;
20855;SDS011;63058;49.424;8.420;2022-12-24T02:51:28;9.82;;;2.00;;
20855;SDS011;63058;49.424;8.420;2022-12-24T02:53:58;8.15;;;1.23;;
20855;SDS011;63058;49.424;8.420;2022-12-24T03:07:54;10.90;;;1.83;;
20855;SDS011;63058;49.424;8.420;2022-12-24T03:10:33;6.70;;;1.35;;
20855;SDS011;63058;49.424;8.420;2022-12-24T03:13:01;8.45;;;1.77;;
20855;SDS011;63058;49.424;8.420;2022-12-24T03:15:33;8.93;;;1.67;;
20855;SDS011;63058;49.424;8.420;2022-12-24T03:17:59;6.30;;;1.65;;
20855;SDS011;63058;49.424;8.420;2022-12-24T03:20:45;5.47;;;1.40;;
20855;SDS011;63058;49.424;8.420;2022-12-24T03:23:55;9.57;;;1.80;;
20855;SDS011;63058;49.424;8.420;2022-12-24T03:26:23;8.98;;;1.83;;
20855;SDS011;63058;49.424;8.420;2022-12-24T03:28:54;7.85;;;1.40;;
20855;SDS011;63058;49.424;8.420;2022-12-24T03:31:20;5.50;;;1.25;;
20855;SDS011;63058;49.424;8.420;2022-12-24T03:33:48;9.65;;;1.92;;
20855;SDS011;63058;49.424;8.420;2022-12-24T03:36:15;8.95;;;1.80;;
20855;SDS011;63058;49.424;8.420;2022-12-24T03:38:43;9.23;;;1.75;;
20855;SDS011;63058;49.424;8.420;2022-12-24T03:41:12;7.72;;;1.52;;
20855;SDS011;63058;49.424;8.420;2022-12-24T03:43:53;5.40;;;1.40;;
20855;SDS011;63058;49.424;8.420;2022-12-24T03:46:27;11.88;;;1.50;;
20855;SDS011;63058;49.424;8.420;2022-12-24T03:48:53;8.82;;;2.00;;
20855;SDS011;63058;49.424;8.420;2022-12-24T03:51:21;9.02;;;1.90;;
20855;SDS011;63058;49.424;8.420;2022-12-24T03:53:58;8.63;;;2.70;;
20855;SDS011;63058;49.424;8.420;2022-12-24T03:56:29;7.32;;;1.52;;
20855;SDS011;63058;49.424;8.420;2022-12-24T03:59:09;11.00;;;1.92;;
20855;SDS011;63058;49.424;8.420;2022-12-24T04:01:35;9.43;;;2.08;;
20855;SDS011;63058;49.424;8.420;2022-12-24T04:07:08;13.15;;;2.40;;
20855;SDS011;63058;49.424;8.420;2022-12-24T04:09:35;7.78;;;1.92;;
20855;SDS011;63058;49.424;8.420;2022-12-24T04:12:04;8.13;;;1.77;;
20855;SDS011;63058;49.424;8.420;2022-12-24T04:14:31;7.28;;;1.40;;
20855;SDS011;63058;49.424;8.420;2022-12-24T04:16:59;13.27;;;2.33;;
20855;SDS011;63058;49.424;8.420;2022-12-24T04:19:25;13.23;;;2.20;;
20855;SDS011;63058;49.424;8.420;2022-12-24T04:21:50;11.82;;;2.35;;
20855;SDS011;63058;49.424;8.420;2022-12-24T04:24:16;7.28;;;1.83;;
20855;SDS011;63058;49.424;8.420;2022-12-24T04:26:45;8.98;;;2.03;;
20855;SDS011;63058;49.424;8.420;2022-12-24T04:29:19;7.75;;;1.90;;
20855;SDS011;63058;49.424;8.420;2022-12-24T04:31:46;8.75;;;1.98;;
20855;SDS011;63058;49.424;8.420;2022-12-24T04:34:16;7.28;;;1.50;;
20855;SDS011;63058;49.424;8.420;2022-12-24T04:36:44;8.27;;;2.22;;
20855;SDS011;63058;49.424;8.420;2022-12-24T04:39:10;7.63;;;1.50;;
20855;SDS011;63058;49.424;8.420;2022-12-24T04:41:39;8.93;;;1.83;;
20855;SDS011;63058;49.424;8.420;2022-12-24T04:44:09;10.32;;;1.83;;
20855;SDS011;63058;49.424;8.420;2022-12-24T04:46:44;7.95;;;1.90;;
20855;SDS011;63058;49.424;8.420;2022-12-24T04:49:13;10.35;;;2.33;;
20855;SDS011;63058;49.424;8.420;2022-12-24T04:51:38;9.57;;;1.80;;
20855;SDS011;63058;49.424;8.420;2022-12-24T04:54:05;10.50;;;2.20;;
20855;SDS011;63058;49.424;8.420;2022-12-24T04:56:31;8.65;;;1.65;;
20855;SDS011;63058;49.424;8.420;2022-12-24T04:59:00;8.60;;;1.50;;
20855;SDS011;63058;49.424;8.420;2022-12-24T05:01:32;6.95;;;1.75;;
20855;SDS011;63058;49.424;8.420;2022-12-24T05:04:01;5.78;;;1.60;;
20855;SDS011;63058;49.424;8.420;2022-12-24T05:06:31;6.95;;;1.80;;
20855;SDS011;63058;49.424;8.420;2022-12-24T05:08:57;11.10;;;2.40;;
20855;SDS011;63058;49.424;8.420;2022-12-24T05:11:25;7.57;;;1.90;;
20855;SDS011;63058;49.424;8.420;2022-12-24T05:13:51;11.35;;;2.10;;
20855;SDS011;63058;49.424;8.420;2022-12-24T05:16:20;9.63;;;2.08;;
20855;SDS011;63058;49.424;8.420;2022-12-24T05:18:47;11.07;;;2.10;;
20855;SDS011;63058;49.424;8.420;2022-12-24T05:21:20;9.07;;;1.90;;
20855;SDS011;63058;49.424;8.420;2022-12-24T05:23:47;9.70;;;2.30;;
20855;SDS011;63058;49.424;8.420;2022-12-24T05:26:48;11.45;;;2.53;;
20855;SDS011;63058;49.424;8.420;2022-12-24T05:29:28;11.30;;;2.30;;
20855;SDS011;63058;49.424;8.420;2022-12-24T05:31:55;11.45;;;2.50;;
20855;SDS011;63058;49.424;8.420;2022-12-24T05:34:21;14.07;;;2.95;;
20855;SDS011;63058;49.424;8.420;2022-12-24T05:36:47;11.60;;;2.33;;
20855;SDS011;63058;49.424;8.420;2022-12-24T05:39:17;10.77;;;2.65;;
20855;SDS011;63058;49.424;8.420;2022-12-24T05:41:44;9.02;;;2.45;;
20855;SDS011;63058;49.424;8.420;2022-12-24T05:44:17;7.15;;;2.13;;
20855;SDS011;63058;49.424;8.420;2022-12-24T05:46:44;12.85;;;2.53;;
20855;SDS011;63058;49.424;8.420;2022-12-24T05:49:09;11.40;;;3.05;;
20855;SDS011;63058;49.424;8.420;2022-12-24T05:51:35;7.25;;;1.88;;
20855;SDS011;63058;49.424;8.420;2022-12-24T05:54:02;9.85;;;2.80;;
20855;SDS011;63058;49.424;8.420;2022-12-24T05:56:30;12.30;;;2.65;;
20855;SDS011;63058;49.424;8.420;2022-12-24T05:58:56;11.52;;;2.95;;
20855;SDS011;63058;49.424;8.420;2022-12-24T06:01:29;14.25;;;2.60;;
20855;SDS011;63058;49.424;8.420;2022-12-24T06:03:56;8.77;;;2.20;;
20855;SDS011;63058;49.424;8.420;2022-12-24T06:06:24;6.35;;;2.22;;
20855;SDS011;63058;49.424;8.420;2022-12-24T06:08:56;8.18;;;2.40;;
20855;SDS011;63058;49.424;8.420;2022-12-24T06:11:23;8.25;;;2.58;;
20855;SDS011;63058;49.424;8.420;2022-12-24T06:13:51;10.73;;;3.10;;
20855;SDS011;63058;49.424;8.420;2022-12-24T06:16:19;7.68;;;2.67;;
20855;SDS011;63058;49.424;8.420;2022-12-24T06:18:45;10.68;;;3.75;;
20855;SDS011;63058;49.424;8.420;2022-12-24T06:21:11;10.48;;;3.95;;
20855;SDS011;63058;49.424;8.420;2022-12-24T06:23:38;13.05;;;4.45;;
20855;SDS011;63058;49.424;8.420;2022-12-24T06:26:10;14.40;;;4.22;;
20855;SDS011;63058;49.424;8.420;2022-12-24T06:28:39;11.85;;;3.40;;
20855;SDS011;63058;49.424;8.420;2022-12-24T06:31:08;15.48;;;3.15;;
20855;SDS011;63058;49.424;8.420;2022-12-24T06:33:36;9.25;;;2.30;;
20855;SDS011;63058;49.424;8.420;2022-12-24T06:36:06;9.98;;;2.85;;
20855;SDS011;63058;49.424;8.420;2022-12-24T06:38:32;9.23;;;2.75;;
20855;SDS011;63058;49.424;8.420;2022-12-24T06:40:58;8.20;;;3.05;;
20855;SDS011;63058;49.424;8.420;2022-12-24T06:43:24;14.40;;;3.55;;
20855;SDS011;63058;49.424;8.420;2022-12-24T06:45:50;10.90;;;3.63;;
20855;SDS011;63058;49.424;8.420;2022-12-24T07:02:45;10.07;;;2.80;;
20855;SDS011;63058;49.424;8.420;2022-12-24T07:05:56;8.88;;;2.67;;
20855;SDS011;63058;49.424;8.420;2022-12-24T07:09:10;6.80;;;2.10;;
20855;SDS011;63058;49.424;8.420;2022-12-24T07:12:47;9.13;;;2.20;;
20855;SDS011;63058;49.424;8.420;2022-12-24T07:33:08;7.10;;;1.77;;
20855;SDS011;63058;49.424;8.420;2022-12-24T07:36:05;7.72;;;2.15;;
20855;SDS011;63058;49.424;8.420;2022-12-24T07:39:09;8.30;;;2.20;;
20855;SDS011;63058;49.424;8.420;2022-12-24T07:41:35;9.20;;;2.42;;
20855;SDS011;63058;49.424;8.420;2022-12-24T07:44:00;13.43;;;2.72;;
20855;SDS011;63058;49.424;8.420;2022-12-24T07:46:26;11.40;;;2.97;;
20855;SDS011;63058;49.424;8.420;2022-12-24T07:48:52;11.98;;;2.63;;
20855;SDS011;63058;49.424;8.420;2022-12-24T07:51:17;9.40;;;2.63;;
20855;SDS011;63058;49.424;8.420;2022-12-24T07:53:43;9.57;;;2.10;;
20855;SDS011;63058;49.424;8.420;2022-12-24T07:56:12;8.90;;;2.40;;
20855;SDS011;63058;49.424;8.420;2022-12-24T07:58:39;9.63;;;2.35;;
20855;SDS011;63058;49.424;8.420;2022-12-24T08:01:05;7.55;;;2.50;;
20855;SDS011;63058;49.424;8.420;2022-12-24T08:03:31;13.40;;;2.85;;
20855;SDS011;63058;49.424;8.420;2022-12-24T08:05:56;8.68;;;2.60;;
20855;SDS011;63058;49.424;8.420;2022-12-24T08:08:22;13.68;;;2.78;;
20855;SDS011;63058;49.424;8.420;2022-12-24T08:10:48;9.90;;;2.90;;
20855;SDS011;63058;49.424;8.420;2022-12-24T08:13:15;13.90;;;3.25;;
20855;SDS011;63058;49.424;8.420;2022-12-24T08:15:41;10.70;;;3.88;;
20855;SDS011;63058;49.424;8.420;2022-12-24T08:18:07;11.23;;;3.33;;
20855;SDS011;63058;49.424;8.420;2022-12-24T08:20:35;13.30;;;3.38;;
20855;SDS011;63058;49.424;8.420;2022-12-24T08:23:02;11.80;;;2.47;;
20855;SDS011;63058;49.424;8.420;2022-12-24T08:25:28;9.98;;;2.30;;
20855;SDS011;63058;49.424;8.420;2022-12-24T08:27:53;8.80;;;2.35;;
20855;SDS011;63058;49.424;8.420;2022-12-24T08:30:19;11.27;;;2.35;;
20855;SDS011;63058;49.424;8.420;2022-12-24T08:32:44;9.73;;;2.20;;
20855;SDS011;63058;49.424;8.420;2022-12-24T08:35:10;13.13;;;2.28;;
20855;SDS011;63058;49.424;8.420;2022-12-24T08:37:36;9.52;;;2.40;;
20855;SDS011;63058;49.424;8.420;2022-12-24T08:40:01;10.25;;;2.45;;
20855;SDS011;63058;49.424;8.420;2022-12-24T08:42:27;10.50;;;2.22;;
20855;SDS011;63058;49.424;8.420;2022-12-24T08:44:53;14.05;;;2.97;;
20855;SDS011;63058;49.424;8.420;2022-12-24T08:47:18;13.38;;;2.65;;
20855;SDS011;63058;49.424;8.420;2022-12-24T08:49:44;14.30;;;2.90;;
20855;SDS011;63058;49.424;8.420;2022-12-24T08:52:10;11.90;;;2.65;;
20855;SDS011;63058;49.424;8.420;2022-12-24T08:54:35;15.20;;;3.03;;
20855;SDS011;63058;49.424;8.420;2022-12-24T08:57:01;12.20;;;2.30;;
20855;SDS011;63058;49.424;8.420;2022-12-24T08:59:26;9.98;;;2.35;;
20855;SDS011;63058;49.424;8.420;2022-12-24T09:01:52;10.70;;;2.35;;
20855;SDS011;63058;49.424;8.420;2022-12-24T09:04:18;9.90;;;2.03;;
20855;SDS011;63058;49.424;8.420;2022-12-24T09:06:44;11.32;;;3.17;;
20855;SDS011;63058;49.424;8.420;2022-12-24T09:09:09;12.77;;;2.60;;
20855;SDS011;63058;49.424;8.420;2022-12-24T09:11:35;12.85;;;2.22;;
20855;SDS011;63058;49.424;8.420;2022-12-24T09:14:01;10.27;;;2.75;;
20855;SDS011;63058;49.424;8.420;2022-12-24T09:16:26;12.82;;;2.70;;
20855;SDS011;63058;49.424;8.420;2022-12-24T09:18:52;13.75;;;2.95;;
20855;SDS011;63058;49.424;8.420;2022-12-24T09:21:18;13.00;;;2.67;;
20855;SDS011;63058;49.424;8.420;2022-12-24T09:23:45;14.63;;;2.63;;
20855;SDS011;63058;49.424;8.420;2022-12-24T09:26:16;11.32;;;2.90;;
20855;SDS011;63058;49.424;8.420;2022-12-24T09:28:44;12.23;;;2.38;;
20855;SDS011;63058;49.424;8.420;2022-12-24T09:31:11;10.05;;;2.65;;
20855;SDS011;63058;49.424;8.420;2022-12-24T09:33:38;14.18;;;2.63;;
20855;SDS011;63058;49.424;8.420;2022-12-24T09:36:04;14.05;;;3.42;;
20855;SDS011;63058;49.424;8.420;2022-12-24T09:38:31;12.32;;;3.17;;
20855;SDS011;63058;49.424;8.420;2022-12-24T09:40:57;14.07;;;2.70;;
20855;SDS011;63058;49.424;8.420;2022-12-24T09:43:25;12.27;;;3.13;;
20855;SDS011;63058;49.424;8.420;2022-12-24T09:46:05;13.73;;;3.30;;
20855;SDS011;63058;49.424;8.420;2022-12-24T09:48:46;16.55;;;3.30;;
20855;SDS011;63058;49.424;8.420;2022-12-24T09:54:07;12.95;;;2.67;;
20855;SDS011;63058;49.424;8.420;2022-12-24T09:56:43;14.95;;;2.90;;
20855;SDS011;63058;49.424;8.420;2022-12-24T09:59:32;17.70;;;3.42;;
20855;SDS011;63058;49.424;8.420;2022-12-24T10:02:16;13.38;;;3.20;;
20855;SDS011;63058;49.424;8.420;2022-12-24T10:04:43;9.23;;;2.67;;
20855;SDS011;63058;49.424;8.420;2022-12-24T10:12:41;12.05;;;2.72;;
20855;SDS011;63058;49.424;8.420;2022-12-24T10:20:31;14.20;;;2.78;;
20855;SDS011;63058;49.424;8.420;2022-12-24T10:23:12;12.32;;;2.33;;
20855;SDS011;63058;49.424;8.420;2022-12-24T10:29:44;14.45;;;2.75;;
20855;SDS011;63058;49.424;8.420;2022-12-24T10:31:55;12.20;;;2.85;;
20855;SDS011;63058;49.424;8.420;2022-12-24T10:34:27;13.43;;;2.63;;
20855;SDS011;63058;49.424;8.420;2022-12-24T10:36:57;12.85;;;2.90;;
20855;SDS011;63058;49.424;8.420;2022-12-24T10:39:26;11.57;;;3.25;;
20855;SDS011;63058;49.424;8.420;2022-12-24T10:41:53;11.73;;;2.85;;
20855;SDS011;63058;49.424;8.420;2022-12-24T10:44:23;17.67;;;4.03;;
20855;SDS011;63058;49.424;8.420;2022-12-24T10:46:54;15.55;;;2.92;;
20855;SDS011;63058;49.424;8.420;2022-12-24T10:49:36;14.20;;;3.30;;
20855;SDS011;63058;49.424;8.420;2022-12-24T10:52:12;12.55;;;2.97;;
20855;SDS011;63058;49.424;8.420;2022-12-24T10:55:04;13.35;;;2.13;;
20855;SDS011;63058;49.424;8.420;2022-12-24T10:57:28;10.70;;;2.72;;
20855;SDS011;63058;49.424;8.420;2022-12-24T10:59:54;11.63;;;2.50;;
20855;SDS011;63058;49.424;8.420;2022-12-24T11:04:57;10.18;;;2.63;;
20855;SDS011;63058;49.424;8.420;2022-12-24T11:07:25;16.23;;;2.55;;
20855;SDS011;63058;49.424;8.420;2022-12-24T11:10:01;15.13;;;3.40;;
20855;SDS011;63058;49.424;8.420;2022-12-24T11:12:39;14.65;;;3.30;;
20855;SDS011;63058;49.424;8.420;2022-12-24T11:15:15;11.13;;;2.53;;
20855;SDS011;63058;49.424;8.420;2022-12-24T11:17:53;12.80;;;2.88;;
20855;SDS011;63058;49.424;8.420;2022-12-24T11:20:33;13.60;;;2.58;;
20855;SDS011;63058;49.424;8.420;2022-12-24T11:22:59;12.63;;;2.88;;
20855;SDS011;63058;49.424;8.420;2022-12-24T11:25:27;15.80;;;3.13;;
20855;SDS011;63058;49.424;8.420;2022-12-24T11:27:56;12.80;;;2.70;;
20855;SDS011;63058;49.424;8.420;2022-12-24T11:30:42;12.43;;;3.20;;
20855;SDS011;63058;49.424;8.420;2022-12-24T11:33:30;12.73;;;3.17;;
20855;SDS011;63058;49.424;8.420;2022-12-24T11:36:09;13.45;;;3.30;;
20855;SDS011;63058;49.424;8.420;2022-12-24T11:38:37;12.68;;;2.72;;
20855;SDS011;63058;49.424;8.420;2022-12-24T11:41:04;9.95;;;2.63;;
20855;SDS011;63058;49.424;8.420;2022-12-24T11:43:35;12.60;;;2.58;;
20855;SDS011;63058;49.424;8.420;2022-12-24T11:46:56;11.10;;;2.92;;
20855;SDS011;63058;49.424;8.420;2022-12-24T11:52:09;9.18;;;2.30;;
20855;SDS011;63058;49.424;8.420;2022-12-24T11:57:49;10.75;;;2.45;;
20855;SDS011;63058;49.424;8.420;2022-12-24T12:00:20;15.95;;;4.18;;
20855;SDS011;63058;49.424;8.420;2022-12-24T12:02:46;10.40;;;3.35;;
20855;SDS011;63058;49.424;8.420;2022-12-24T12:05:21;10.07;;;3.05;;
20855;SDS011;63058;49.424;8.420;2022-12-24T12:07:51;8.90;;;2.92;;
20855;SDS011;63058;49.424;8.420;2022-12-24T12:10:24;11.48;;;3.00;;
20855;SDS011;63058;49.424;8.420;2022-12-24T12:13:13;10.95;;;2.92;;
20855;SDS011;63058;49.424;8.420;2022-12-24T12:18:14;12.60;;;2.90;;
20855;SDS011;63058;49.424;8.420;2022-12-24T12:20:47;11.85;;;3.10;;
20855;SDS011;63058;49.424;8.420;2022-12-24T12:23:40;10.25;;;2.67;;
20855;SDS011;63058;49.424;8.420;2022-12-24T12:26:39;16.38;;;3.03;;
20855;SDS011;63058;49.424;8.420;2022-12-24T12:29:15;12.63;;;2.67;;
20855;SDS011;63058;49.424;8.420;2022-12-24T12:31:53;12.32;;;2.15;;
20855;SDS011;63058;49.424;8.420;2022-12-24T12:37:23;10.00;;;2.40;;
20855;SDS011;63058;49.424;8.420;2022-12-24T12:40:16;10.00;;;2.85;;
20855;SDS011;63058;49.424;8.420;2022-12-24T12:43:00;16.30;;;3.20;;
20855;SDS011;63058;49.424;8.420;2022-12-24T12:56:35;12.27;;;2.95;;
20855;SDS011;63058;49.424;8.420;2022-12-24T13:01:35;9.45;;;3.20;;
20855;SDS011;63058;49.424;8.420;2022-12-24T13:12:13;8.20;;;2.28;;
20855;SDS011;63058;49.424;8.420;2022-12-24T13:14:55;13.80;;;2.92;;
20855;SDS011;63058;49.424;8.420;2022-12-24T13:20:21;13.38;;;3.42;;
20855;SDS011;63058;49.424;8.420;2022-12-24T13:25:35;18.88;;;4.03;;
20855;SDS011;63058;49.424;8.420;2022-12-24T13:30:49;14.45;;;2.80;;
20855;SDS011;63058;49.424;8.420;2022-12-24T13:38:31;12.88;;;2.67;;
20855;SDS011;63058;49.424;8.420;2022-12-24T13:44:01;10.43;;;2.45;;
20855;SDS011;63058;49.424;8.420;2022-12-24T13:49:21;12.52;;;2.95;;
20855;SDS011;63058;49.424;8.420;2022-12-24T16:59:59;8.32;;;3.42;;
20855;SDS011;63058;49.424;8.420;2022-12-24T17:02:29;9.60;;;3.72;;
20855;SDS011;63058;49.424;8.420;2022-12-24T17:04:55;10.50;;;4.47;;
20855;SDS011;63058;49.424;8.420;2022-12-24T17:07:22;8.00;;;3.95;;
20855;SDS011;63058;49.424;8.420;2022-12-24T17:09:48;9.15;;;3.90;;
20855;SDS011;63058;49.424;8.420;2022-12-24T17:12:14;7.05;;;3.55;;
20855;SDS011;63058;49.424;8.420;2022-12-24T17:14:41;9.43;;;4.03;;
20855;SDS011;63058;49.424;8.420;2022-12-24T17:17:08;5.55;;;2.67;;
20855;SDS011;63058;49.424;8.420;2022-12-24T17:19:47;7.57;;;3.55;;
20855;SDS011;63058;49.424;8.420;2022-12-24T17:22:13;8.70;;;3.75;;
20855;SDS011;63058;49.424;8.420;2022-12-24T17:24:40;10.82;;;4.63;;
20855;SDS011;63058;49.424;8.420;2022-12-24T17:27:07;9.30;;;4.47;;
20855;SDS011;63058;49.424;8.420;2022-12-24T17:29:38;10.05;;;3.90;;
20855;SDS011;63058;49.424;8.420;2022-12-24T17:32:04;9.70;;;4.07;;
20855;SDS011;63058;49.424;8.420;2022-12-24T17:34:30;8.02;;;3.67;;
20855;SDS011;63058;49.424;8.420;2022-12-24T17:36:56;7.30;;;3.58;;
20855;SDS011;63058;49.424;8.420;2022-12-24T17:39:22;12.25;;;4.75;;
20855;SDS011;63058;49.424;8.420;2022-12-24T17:41:48;8.77;;;4.30;;
20855;SDS011;63058;49.424;8.420;2022-12-24T17:44:17;8.98;;;4.35;;
20855;SDS011;63058;49.424;8.420;2022-12-24T17:46:43;8.43;;;4.03;;
20855;SDS011;63058;49.424;8.420;2022-12-24T17:49:08;10.23;;;4.72;;
20855;SDS011;63058;49.424;8.420;2022-12-24T17:51:36;11.95;;;4.38;;
20855;SDS011;63058;49.424;8.420;2022-12-24T17:54:02;9.20;;;4.32;;
20855;SDS011;63058;49.424;8.420;2022-12-24T17:56:28;9.00;;;4.15;;
20855;SDS011;63058;49.424;8.420;2022-12-24T17:58:54;8.93;;;4.35;;
20855;SDS011;63058;49.424;8.420;2022-12-24T18:01:21;8.30;;;4.45;;
20855;SDS011;63058;49.424;8.420;2022-12-24T18:03:49;11.43;;;4.22;;
20855;SDS011;63058;49.424;8.420;2022-12-24T18:06:16;12.20;;;4.05;;
20855;SDS011;63058;49.424;8.420;2022-12-24T18:08:43;6.72;;;3.40;;
20855;SDS011;63058;49.424;8.420;2022-12-24T18:13:47;10.15;;;4.13;;
20855;SDS011;63058;49.424;8.420;2022-12-24T18:16:15;7.75;;;4.00;;
20855;SDS011;63058;49.424;8.420;2022-12-24T18:18:46;8.85;;;3.47;;
20855;SDS011;63058;49.424;8.420;2022-12-24T18:21:13;10.13;;;4.15;;
20855;SDS011;63058;49.424;8.420;2022-12-24T18:23:40;10.55;;;3.70;;
20855;SDS011;63058;49.424;8.420;2022-12-24T18:26:07;8.75;;;3.53;;
20855;SDS011;63058;49.424;8.420;2022-12-24T18:28:34;7.20;;;3.70;;
20855;SDS011;63058;49.424;8.420;2022-12-24T18:31:00;10.55;;;4.13;;
20855;SDS011;63058;49.424;8.420;2022-12-24T18:33:33;8.27;;;3.70;;
20855;SDS011;63058;49.424;8.420;2022-12-24T18:35:59;6.85;;;3.67;;
20855;SDS011;63058;49.424;8.420;2022-12-24T18:38:26;7.22;;;3.75;;
20855;SDS011;63058;49.424;8.420;2022-12-24T18:40:51;7.93;;;3.80;;
20855;SDS011;63058;49.424;8.420;2022-12-24T18:43:17;11.02;;;4.43;;
20855;SDS011;63058;49.424;8.420;2022-12-24T18:45:46;10.57;;;6.28;;
20855;SDS011;63058;49.424;8.420;2022-12-24T18:48:14;10.38;;;6.30;;
20855;SDS011;63058;49.424;8.420;2022-12-24T18:50:40;11.57;;;5.47;;
20855;SDS011;63058;49.424;8.420;2022-12-24T18:53:05;11.07;;;4.82;;
20855;SDS011;63058;49.424;8.420;2022-12-24T18:55:35;8.95;;;4.30;;
20855;SDS011;63058;49.424;8.420;2022-12-24T18:58:04;8.15;;;3.97;;
20855;SDS011;63058;49.424;8.420;2022-12-24T19:00:30;9.45;;;4.05;;
20855;SDS011;63058;49.424;8.420;2022-12-24T19:02:55;9.75;;;4.25;;
20855;SDS011;63058;49.424;8.420;2022-12-24T19:05:21;7.38;;;3.45;;
20855;SDS011;63058;49.424;8.420;2022-12-24T19:07:47;8.48;;;3.88;;
20855;SDS011;63058;49.424;8.420;2022-12-24T19:10:12;6.45;;;3.28;;
20855;SDS011;63058;49.424;8.420;2022-12-24T19:12:38;8.80;;;3.60;;
20855;SDS011;63058;49.424;8.420;2022-12-24T19:15:05;9.32;;;3.58;;
20855;SDS011;63058;49.424;8.420;2022-12-24T19:17:31;9.35;;;3.45;;
20855;SDS011;63058;49.424;8.420;2022-12-24T19:19:56;8.95;;;3.72;;
20855;SDS011;63058;49.424;8.420;2022-12-24T19:22:25;9.77;;;3.58;;
20855;SDS011;63058;49.424;8.420;2022-12-24T19:24:53;8.43;;;3.42;;
20855;SDS011;63058;49.424;8.420;2022-12-24T19:27:19;8.10;;;3.15;;
20855;SDS011;63058;49.424;8.420;2022-12-24T19:29:47;8.95;;;3.60;;
20855;SDS011;63058;49.424;8.420;2022-12-24T19:32:13;8.30;;;3.50;;
20855;SDS011;63058;49.424;8.420;2022-12-24T19:34:41;11.05;;;3.97;;
20855;SDS011;63058;49.424;8.420;2022-12-24T19:37:07;11.45;;;4.10;;
20855;SDS011;63058;49.424;8.420;2022-12-24T19:39:33;6.07;;;3.17;;
20855;SDS011;63058;49.424;8.420;2022-12-24T19:41:59;8.55;;;3.90;;
20855;SDS011;63058;49.424;8.420;2022-12-24T19:44:25;6.93;;;4.07;;
20855;SDS011;63058;49.424;8.420;2022-12-24T19:46:51;8.27;;;3.90;;
20855;SDS011;63058;49.424;8.420;2022-12-24T19:49:16;9.40;;;3.97;;
20855;SDS011;63058;49.424;8.420;2022-12-24T19:51:42;8.60;;;4.30;;
20855;SDS011;63058;49.424;8.420;2022-12-24T19:54:08;9.73;;;4.30;;
20855;SDS011;63058;49.424;8.420;2022-12-24T19:56:36;8.07;;;3.95;;
20855;SDS011;63058;49.424;8.420;2022-12-24T19:59:03;7.32;;;4.13;;
20855;SDS011;63058;49.424;8.420;2022-12-24T20:01:29;9.80;;;5.13;;
20855;SDS011;63058;49.424;8.420;2022-12-24T20:03:57;16.80;;;6.63;;
20855;SDS011;63058;49.424;8.420;2022-12-24T20:06:24;13.45;;;6.28;;
20855;SDS011;63058;49.424;8.420;2022-12-24T20:08:56;14.68;;;5.80;;
20855;SDS011;63058;49.424;8.420;2022-12-24T20:11:26;10.02;;;5.15;;
20855;SDS011;63058;49.424;8.420;2022-12-24T20:13:56;10.52;;;5.22;;
20855;SDS011;63058;49.424;8.420;2022-12-24T20:16:23;12.40;;;5.38;;
20855;SDS011;63058;49.424;8.420;2022-12-24T20:21:24;11.02;;;4.78;;
20855;SDS011;63058;49.424;8.420;2022-12-24T20:23:51;9.38;;;4.57;;
20855;SDS011;63058;49.424;8.420;2022-12-24T20:26:18;7.30;;;4.07;;
20855;SDS011;63058;49.424;8.420;2022-12-24T20:28:45;7.82;;;4.53;;
20855;SDS011;63058;49.424;8.420;2022-12-24T20:31:12;8.48;;;4.18;;
20855;SDS011;63058;49.424;8.420;2022-12-24T20:33:39;6.43;;;3.70;;
20855;SDS011;63058;49.424;8.420;2022-12-24T20:36:05;7.10;;;3.60;;
20855;SDS011;63058;49.424;8.420;2022-12-24T20:38:31;7.70;;;3.55;;